Weather at Shenstone Hall Farm Airstrip

Public forecast

Using degrees Celsius for public forecast. Weather courtesy of forecast.io.

Closest aviation weather report (METAR) to Shenstone Hall Farm Airstrip

Closest report is Birmingham International Airport, 11.5 nm (21.3 km) SSE. Retrieved 2021/04/17 20:20 UTC (15 minutes ago):

EGBB 172020Z 16004KT CAVOK 08/M01 Q1026

Closest aviation forecast (TAF) to Shenstone Hall Farm Airstrip

Closest forecast is Birmingham International Airport, 11.5 nm (21.3 km) SSE. Retrieved 2021/04/17 18:09 UTC (2 hours ago):

TAF EGBB 171658Z 1718/1818 VRB03KT 9999 FEW045